sensor_id;sensor_type;location;lat;lon;timestamp;pressure;altitude;pressure_sealevel;temperature;humidity
55470;BME280;41334;47.872;16.384;2023-08-31T00:03:17;98373.94;;;13.25;73.88
55470;BME280;41334;47.872;16.384;2023-08-31T00:08:20;98386.56;;;13.23;73.21
55470;BME280;41334;47.872;16.384;2023-08-31T00:13:24;98386.31;;;13.28;72.62
55470;BME280;41334;47.872;16.384;2023-08-31T00:18:26;98392.78;;;13.32;72.38
55470;BME280;41334;47.872;16.384;2023-08-31T00:23:28;98394.06;;;13.34;72.77
55470;BME280;41334;47.872;16.384;2023-08-31T00:28:30;98388.94;;;13.36;71.80
55470;BME280;41334;47.872;16.384;2023-08-31T00:33:32;98396.94;;;13.38;71.77
55470;BME280;41334;47.872;16.384;2023-08-31T00:38:35;98406.09;;;13.38;71.50
55470;BME280;41334;47.872;16.384;2023-08-31T00:43:37;98414.09;;;13.40;71.79
55470;BME280;41334;47.872;16.384;2023-08-31T00:48:40;98414.91;;;13.40;71.36
55470;BME280;41334;47.872;16.384;2023-08-31T00:53:43;98416.88;;;13.40;71.01
55470;BME280;41334;47.872;16.384;2023-08-31T00:58:45;98408.53;;;13.40;71.30
55470;BME280;41334;47.872;16.384;2023-08-31T01:04:21;98414.09;;;13.40;70.82
55470;BME280;41334;47.872;16.384;2023-08-31T01:09:57;98422.09;;;13.41;70.53
55470;BME280;41334;47.872;16.384;2023-08-31T01:15:10;98418.94;;;13.43;70.97
55470;BME280;41334;47.872;16.384;2023-08-31T01:25:37;98415.72;;;13.41;70.24
55470;BME280;41334;47.872;16.384;2023-08-31T01:30:39;98425.22;;;13.40;69.91
55470;BME280;41334;47.872;16.384;2023-08-31T01:35:46;98418.13;;;13.42;69.50
55470;BME280;41334;47.872;16.384;2023-08-31T01:40:59;98434.56;;;13.48;68.05
55470;BME280;41334;47.872;16.384;2023-08-31T01:46:02;98427.38;;;13.46;68.30
55470;BME280;41334;47.872;16.384;2023-08-31T01:51:08;98430.97;;;13.47;68.86
55470;BME280;41334;47.872;16.384;2023-08-31T01:56:10;98433.75;;;13.47;68.47
55470;BME280;41334;47.872;16.384;2023-08-31T02:01:12;98440.94;;;13.48;69.25
55470;BME280;41334;47.872;16.384;2023-08-31T02:06:14;98451.63;;;13.46;69.17
55470;BME280;41334;47.872;16.384;2023-08-31T02:11:16;98454.75;;;13.44;68.30
55470;BME280;41334;47.872;16.384;2023-08-31T02:16:18;98459.97;;;13.46;68.61
55470;BME280;41334;47.872;16.384;2023-08-31T02:21:20;98458.81;;;13.47;69.15
55470;BME280;41334;47.872;16.384;2023-08-31T02:26:22;98452.44;;;13.46;69.47
55470;BME280;41334;47.872;16.384;2023-08-31T02:31:24;98454.84;;;13.48;68.67
55470;BME280;41334;47.872;16.384;2023-08-31T02:36:25;98462.41;;;13.48;69.75
55470;BME280;41334;47.872;16.384;2023-08-31T02:41:27;98461.59;;;13.47;70.17
55470;BME280;41334;47.872;16.384;2023-08-31T02:46:29;98465.19;;;13.48;69.53
55470;BME280;41334;47.872;16.384;2023-08-31T02:51:32;98470.63;;;13.44;70.20
55470;BME280;41334;47.872;16.384;2023-08-31T02:56:34;98468.22;;;13.42;71.04
55470;BME280;41334;47.872;16.384;2023-08-31T03:01:35;98472.97;;;13.42;71.15
55470;BME280;41334;47.872;16.384;2023-08-31T03:06:38;98472.16;;;13.41;71.60
55470;BME280;41334;47.872;16.384;2023-08-31T03:11:40;98468.22;;;13.42;72.33
55470;BME280;41334;47.872;16.384;2023-08-31T03:16:42;98474.16;;;13.41;72.99
55470;BME280;41334;47.872;16.384;2023-08-31T03:21:44;98476.13;;;13.40;74.00
55470;BME280;41334;47.872;16.384;2023-08-31T03:26:46;98485.53;;;13.36;73.31
55470;BME280;41334;47.872;16.384;2023-08-31T03:31:47;98477.88;;;13.33;74.23
55470;BME280;41334;47.872;16.384;2023-08-31T03:36:50;98486.47;;;13.28;73.44
55470;BME280;41334;47.872;16.384;2023-08-31T03:41:52;98481.16;;;13.23;73.29
55470;BME280;41334;47.872;16.384;2023-08-31T03:46:54;98486.53;;;13.15;74.54
55470;BME280;41334;47.872;16.384;2023-08-31T03:51:56;98481.66;;;13.12;75.48
55470;BME280;41334;47.872;16.384;2023-08-31T03:56:58;98494.75;;;13.12;74.60
55470;BME280;41334;47.872;16.384;2023-08-31T04:02:01;98495.13;;;13.10;74.69
55470;BME280;41334;47.872;16.384;2023-08-31T04:07:05;98499.75;;;13.06;75.75
55470;BME280;41334;47.872;16.384;2023-08-31T04:12:08;98504.56;;;12.93;74.60
55470;BME280;41334;47.872;16.384;2023-08-31T04:17:09;98501.34;;;12.91;74.09
55470;BME280;41334;47.872;16.384;2023-08-31T04:22:11;98506.53;;;12.93;73.84
55470;BME280;41334;47.872;16.384;2023-08-31T04:27:13;98506.91;;;12.91;72.93
55470;BME280;41334;47.872;16.384;2023-08-31T04:32:15;98509.75;;;12.95;73.64
55470;BME280;41334;47.872;16.384;2023-08-31T04:37:17;98511.06;;;12.98;73.29
55470;BME280;41334;47.872;16.384;2023-08-31T04:42:19;98515.56;;;13.02;73.13
55470;BME280;41334;47.872;16.384;2023-08-31T04:47:20;98515.66;;;13.06;73.13
55470;BME280;41334;47.872;16.384;2023-08-31T04:52:22;98528.81;;;13.21;72.66
55470;BME280;41334;47.872;16.384;2023-08-31T04:57:24;98534.41;;;13.49;72.37
55470;BME280;41334;47.872;16.384;2023-08-31T05:02:27;98531.22;;;13.91;70.98
55470;BME280;41334;47.872;16.384;2023-08-31T05:07:30;98542.94;;;14.28;69.98
55470;BME280;41334;47.872;16.384;2023-08-31T05:12:32;98545.97;;;14.55;69.44
55470;BME280;41334;47.872;16.384;2023-08-31T05:17:33;98540.28;;;14.67;68.94
55470;BME280;41334;47.872;16.384;2023-08-31T05:22:35;98547.28;;;14.73;68.80
55470;BME280;41334;47.872;16.384;2023-08-31T05:27:37;98540.75;;;14.69;68.68
55470;BME280;41334;47.872;16.384;2023-08-31T05:32:39;98545.81;;;14.79;68.47
55470;BME280;41334;47.872;16.384;2023-08-31T05:37:41;98557.13;;;14.86;68.23
55470;BME280;41334;47.872;16.384;2023-08-31T05:42:43;98549.75;;;14.94;68.67
55470;BME280;41334;47.872;16.384;2023-08-31T05:47:45;98551.16;;;15.03;68.02
55470;BME280;41334;47.872;16.384;2023-08-31T05:52:47;98554.28;;;15.18;68.02
55470;BME280;41334;47.872;16.384;2023-08-31T05:57:49;98568.25;;;15.37;67.15
55470;BME280;41334;47.872;16.384;2023-08-31T06:02:51;98566.44;;;15.84;65.62
55470;BME280;41334;47.872;16.384;2023-08-31T06:07:53;98569.63;;;16.24;64.33
55470;BME280;41334;47.872;16.384;2023-08-31T06:12:55;98568.13;;;16.76;62.60
55470;BME280;41334;47.872;16.384;2023-08-31T06:17:57;98577.13;;;17.16;59.90
55470;BME280;41334;47.872;16.384;2023-08-31T06:23:02;98582.50;;;17.28;59.09
55470;BME280;41334;47.872;16.384;2023-08-31T06:28:04;98589.16;;;17.46;57.37
55470;BME280;41334;47.872;16.384;2023-08-31T06:33:10;98597.63;;;17.50;57.54
55470;BME280;41334;47.872;16.384;2023-08-31T06:38:13;98594.28;;;17.67;57.13
55470;BME280;41334;47.872;16.384;2023-08-31T06:43:14;98596.34;;;17.74;56.99
55470;BME280;41334;47.872;16.384;2023-08-31T06:48:16;98609.97;;;17.72;57.15
55470;BME280;41334;47.872;16.384;2023-08-31T06:53:18;98610.97;;;17.60;56.81
55470;BME280;41334;47.872;16.384;2023-08-31T06:58:20;98617.66;;;17.52;57.54
55470;BME280;41334;47.872;16.384;2023-08-31T07:03:22;98615.56;;;18.05;55.11
55470;BME280;41334;47.872;16.384;2023-08-31T07:08:28;98620.56;;;18.60;54.46
55470;BME280;41334;47.872;16.384;2023-08-31T07:13:29;98623.53;;;18.74;52.24
55470;BME280;41334;47.872;16.384;2023-08-31T07:18:31;98623.69;;;18.96;51.45
55470;BME280;41334;47.872;16.384;2023-08-31T07:23:33;98623.94;;;19.28;49.94
55470;BME280;41334;47.872;16.384;2023-08-31T07:28:38;98633.09;;;19.76;50.76
55470;BME280;41334;47.872;16.384;2023-08-31T07:33:41;98629.19;;;19.95;49.33
55470;BME280;41334;47.872;16.384;2023-08-31T07:38:43;98632.13;;;20.23;48.43
55470;BME280;41334;47.872;16.384;2023-08-31T07:43:45;98635.44;;;20.72;47.90
55470;BME280;41334;47.872;16.384;2023-08-31T07:49:04;98642.34;;;20.96;47.24
55470;BME280;41334;47.872;16.384;2023-08-31T07:54:06;98662.44;;;21.05;45.28
55470;BME280;41334;47.872;16.384;2023-08-31T07:59:08;98660.81;;;21.00;44.68
55470;BME280;41334;47.872;16.384;2023-08-31T08:04:12;98658.78;;;21.51;41.08
55470;BME280;41334;47.872;16.384;2023-08-31T08:09:14;98658.78;;;21.76;41.24
55470;BME280;41334;47.872;16.384;2023-08-31T08:14:17;98663.22;;;21.66;42.36
55470;BME280;41334;47.872;16.384;2023-08-31T08:19:23;98666.47;;;20.93;41.79
55470;BME280;41334;47.872;16.384;2023-08-31T08:24:25;98682.16;;;21.44;42.34
55470;BME280;41334;47.872;16.384;2023-08-31T08:29:27;98682.16;;;21.44;39.75
55470;BME280;41334;47.872;16.384;2023-08-31T08:34:29;98687.78;;;21.59;40.19
55470;BME280;41334;47.872;16.384;2023-08-31T08:39:31;98697.81;;;21.88;38.82
55470;BME280;41334;47.872;16.384;2023-08-31T08:44:33;98684.44;;;22.14;38.48
55470;BME280;41334;47.872;16.384;2023-08-31T08:49:37;98689.69;;;22.92;38.18
55470;BME280;41334;47.872;16.384;2023-08-31T08:54:40;98698.66;;;22.83;38.42
55470;BME280;41334;47.872;16.384;2023-08-31T08:59:41;98705.66;;;22.54;36.93
55470;BME280;41334;47.872;16.384;2023-08-31T09:04:43;98708.09;;;22.52;37.45
55470;BME280;41334;47.872;16.384;2023-08-31T09:09:52;98709.47;;;22.96;38.16
55470;BME280;41334;47.872;16.384;2023-08-31T09:15:02;98709.59;;;22.78;37.83
55470;BME280;41334;47.872;16.384;2023-08-31T09:20:06;98711.63;;;22.70;36.61
55470;BME280;41334;47.872;16.384;2023-08-31T09:25:08;98710.94;;;23.18;35.18
55470;BME280;41334;47.872;16.384;2023-08-31T09:30:11;98710.06;;;23.28;34.42
55470;BME280;41334;47.872;16.384;2023-08-31T09:35:13;98710.78;;;24.22;32.78
55470;BME280;41334;47.872;16.384;2023-08-31T09:40:23;98725.47;;;25.32;34.19
55470;BME280;41334;47.872;16.384;2023-08-31T09:45:33;98737.09;;;24.84;33.39
55470;BME280;41334;47.872;16.384;2023-08-31T09:50:38;98737.84;;;24.92;31.98
55470;BME280;41334;47.872;16.384;2023-08-31T09:55:41;98739.03;;;25.21;33.67
55470;BME280;41334;47.872;16.384;2023-08-31T10:00:45;98737.06;;;25.18;32.99
55470;BME280;41334;47.872;16.384;2023-08-31T10:05:48;98734.03;;;25.02;31.60
55470;BME280;41334;47.872;16.384;2023-08-31T10:10:52;98734.28;;;25.14;32.69
55470;BME280;41334;47.872;16.384;2023-08-31T10:15:55;98738.66;;;24.58;32.34
55470;BME280;41334;47.872;16.384;2023-08-31T10:20:57;98747.06;;;24.69;33.06
55470;BME280;41334;47.872;16.384;2023-08-31T10:26:00;98740.94;;;24.36;30.63
55470;BME280;41334;47.872;16.384;2023-08-31T10:31:16;98746.28;;;23.93;34.40
55470;BME280;41334;47.872;16.384;2023-08-31T10:36:21;98751.31;;;23.74;32.51
55470;BME280;41334;47.872;16.384;2023-08-31T10:41:23;98747.41;;;23.99;31.32
55470;BME280;41334;47.872;16.384;2023-08-31T10:51:31;98751.97;;;22.78;34.22
55470;BME280;41334;47.872;16.384;2023-08-31T10:57:26;98759.75;;;22.52;33.69
55470;BME280;41334;47.872;16.384;2023-08-31T11:02:26;98750.06;;;22.50;33.22
55470;BME280;41334;47.872;16.384;2023-08-31T11:07:29;98754.34;;;22.83;32.78
55470;BME280;41334;47.872;16.384;2023-08-31T11:12:32;98767.75;;;23.34;33.30
55470;BME280;41334;47.872;16.384;2023-08-31T11:17:34;98780.38;;;23.23;33.48
55470;BME280;41334;47.872;16.384;2023-08-31T11:22:40;98778.84;;;23.11;33.32
55470;BME280;41334;47.872;16.384;2023-08-31T11:27:55;98771.81;;;23.30;35.62
55470;BME280;41334;47.872;16.384;2023-08-31T11:33:03;98763.69;;;23.39;36.37
55470;BME280;41334;47.872;16.384;2023-08-31T11:38:05;98764.19;;;23.30;33.12
55470;BME280;41334;47.872;16.384;2023-08-31T11:43:07;98759.28;;;23.86;32.19
55470;BME280;41334;47.872;16.384;2023-08-31T11:48:09;98760.78;;;23.98;33.65
55470;BME280;41334;47.872;16.384;2023-08-31T11:53:12;98754.03;;;23.33;31.48
55470;BME280;41334;47.872;16.384;2023-08-31T11:58:14;98759.69;;;23.37;31.43
55470;BME280;41334;47.872;16.384;2023-08-31T12:03:16;98770.84;;;23.54;33.85
55470;BME280;41334;47.872;16.384;2023-08-31T12:08:25;98780.88;;;23.11;33.08
55470;BME280;41334;47.872;16.384;2023-08-31T12:13:30;98796.69;;;22.94;35.32
55470;BME280;41334;47.872;16.384;2023-08-31T12:18:32;98771.97;;;23.08;34.91
55470;BME280;41334;47.872;16.384;2023-08-31T12:23:38;98781.97;;;23.27;32.81
55470;BME280;41334;47.872;16.384;2023-08-31T12:28:40;98783.16;;;22.42;33.24
55470;BME280;41334;47.872;16.384;2023-08-31T12:33:42;98782.00;;;23.20;33.39
55470;BME280;41334;47.872;16.384;2023-08-31T12:38:45;98779.31;;;22.95;34.66
55470;BME280;41334;47.872;16.384;2023-08-31T12:43:49;98795.38;;;23.16;33.03
55470;BME280;41334;47.872;16.384;2023-08-31T12:48:51;98795.50;;;22.88;34.50
55470;BME280;41334;47.872;16.384;2023-08-31T12:53:54;98787.97;;;22.49;34.30
55470;BME280;41334;47.872;16.384;2023-08-31T12:58:56;98790.00;;;22.55;35.37
55470;BME280;41334;47.872;16.384;2023-08-31T13:03:58;98792.38;;;22.61;35.44
55470;BME280;41334;47.872;16.384;2023-08-31T13:09:00;98795.94;;;22.75;35.20
55470;BME280;41334;47.872;16.384;2023-08-31T13:14:02;98785.31;;;23.04;34.51
55470;BME280;41334;47.872;16.384;2023-08-31T13:19:04;98787.03;;;22.88;35.48
55470;BME280;41334;47.872;16.384;2023-08-31T13:24:06;98797.69;;;22.41;35.17
55470;BME280;41334;47.872;16.384;2023-08-31T13:29:08;98789.22;;;22.30;36.41
55470;BME280;41334;47.872;16.384;2023-08-31T13:34:10;98776.72;;;22.35;37.37
55470;BME280;41334;47.872;16.384;2023-08-31T13:39:12;98768.91;;;22.74;35.75
55470;BME280;41334;47.872;16.384;2023-08-31T13:44:14;98771.25;;;22.90;34.20
55470;BME280;41334;47.872;16.384;2023-08-31T13:49:16;98782.03;;;23.17;33.67
55470;BME280;41334;47.872;16.384;2023-08-31T13:54:18;98778.50;;;22.91;32.05
55470;BME280;41334;47.872;16.384;2023-08-31T13:59:20;98777.06;;;22.54;34.31
55470;BME280;41334;47.872;16.384;2023-08-31T14:04:22;98771.47;;;22.33;35.51
55470;BME280;41334;47.872;16.384;2023-08-31T14:09:24;98793.63;;;22.56;33.98
55470;BME280;41334;47.872;16.384;2023-08-31T14:14:26;98784.38;;;22.30;34.30
55470;BME280;41334;47.872;16.384;2023-08-31T14:19:28;98805.38;;;22.22;35.49
55470;BME280;41334;47.872;16.384;2023-08-31T14:24:29;98805.75;;;22.28;34.32
55470;BME280;41334;47.872;16.384;2023-08-31T14:29:31;98803.28;;;22.59;33.73
55470;BME280;41334;47.872;16.384;2023-08-31T14:34:33;98797.69;;;22.30;34.45
55470;BME280;41334;47.872;16.384;2023-08-31T14:39:35;98794.88;;;22.26;33.67
55470;BME280;41334;47.872;16.384;2023-08-31T14:44:37;98792.03;;;22.34;33.51
55470;BME280;41334;47.872;16.384;2023-08-31T14:49:39;98790.00;;;22.52;34.26
55470;BME280;41334;47.872;16.384;2023-08-31T14:54:44;98795.69;;;22.23;34.74
55470;BME280;41334;47.872;16.384;2023-08-31T14:59:46;98799.72;;;22.29;35.68
55470;BME280;41334;47.872;16.384;2023-08-31T15:04:48;98806.22;;;22.09;35.48
55470;BME280;41334;47.872;16.384;2023-08-31T15:09:52;98816.28;;;22.06;35.47
55470;BME280;41334;47.872;16.384;2023-08-31T15:14:57;98808.25;;;21.87;36.55
55470;BME280;41334;47.872;16.384;2023-08-31T15:19:59;98802.59;;;22.01;36.35
55470;BME280;41334;47.872;16.384;2023-08-31T15:25:01;98811.47;;;21.99;35.83
55470;BME280;41334;47.872;16.384;2023-08-31T15:30:05;98809.84;;;21.84;35.08
55470;BME280;41334;47.872;16.384;2023-08-31T15:35:09;98817.09;;;21.74;36.22
55470;BME280;41334;47.872;16.384;2023-08-31T15:40:13;98821.06;;;21.38;36.95
55470;BME280;41334;47.872;16.384;2023-08-31T15:45:15;98821.84;;;21.20;37.19
55470;BME280;41334;47.872;16.384;2023-08-31T15:50:17;98817.28;;;20.80;37.63
55470;BME280;41334;47.872;16.384;2023-08-31T15:55:19;98816.81;;;20.60;38.76
55470;BME280;41334;47.872;16.384;2023-08-31T16:00:22;98818.00;;;20.59;38.87
55470;BME280;41334;47.872;16.384;2023-08-31T16:05:24;98810.69;;;20.47;39.52
55470;BME280;41334;47.872;16.384;2023-08-31T16:10:27;98828.84;;;20.54;39.55
55470;BME280;41334;47.872;16.384;2023-08-31T16:15:28;98834.78;;;20.41;39.78
55470;BME280;41334;47.872;16.384;2023-08-31T16:20:31;98836.41;;;20.42;39.42
55470;BME280;41334;47.872;16.384;2023-08-31T16:25:33;98855.41;;;20.63;39.40
55470;BME280;41334;47.872;16.384;2023-08-31T16:30:35;98860.97;;;20.53;39.60
55470;BME280;41334;47.872;16.384;2023-08-31T16:35:37;98861.69;;;20.35;40.07
55470;BME280;41334;47.872;16.384;2023-08-31T16:40:40;98867.28;;;20.32;41.07
55470;BME280;41334;47.872;16.384;2023-08-31T16:45:42;98867.34;;;20.39;40.89
55470;BME280;41334;47.872;16.384;2023-08-31T16:50:44;98866.81;;;20.19;40.52
55470;BME280;41334;47.872;16.384;2023-08-31T16:55:46;98864.97;;;19.93;41.32
55470;BME280;41334;47.872;16.384;2023-08-31T17:00:48;98874.13;;;19.79;41.68
55470;BME280;41334;47.872;16.384;2023-08-31T17:05:54;98893.69;;;19.68;41.32
55470;BME280;41334;47.872;16.384;2023-08-31T17:10:56;98908.28;;;19.44;45.91
55470;BME280;41334;47.872;16.384;2023-08-31T17:15:58;98911.84;;;19.07;49.69
55470;BME280;41334;47.872;16.384;2023-08-31T17:21:00;98919.09;;;18.78;50.77
55470;BME280;41334;47.872;16.384;2023-08-31T17:26:02;98913.84;;;18.47;52.39
55470;BME280;41334;47.872;16.384;2023-08-31T17:31:04;98918.66;;;18.23;53.33
55470;BME280;41334;47.872;16.384;2023-08-31T17:36:07;98922.22;;;17.97;54.29
55470;BME280;41334;47.872;16.384;2023-08-31T17:41:09;98922.50;;;17.66;55.81
55470;BME280;41334;47.872;16.384;2023-08-31T17:46:11;98935.75;;;17.49;55.91
55470;BME280;41334;47.872;16.384;2023-08-31T17:51:13;98941.31;;;17.26;56.75
55470;BME280;41334;47.872;16.384;2023-08-31T17:56:15;98943.00;;;17.11;57.21
55470;BME280;41334;47.872;16.384;2023-08-31T18:01:18;98942.34;;;16.99;57.69
55470;BME280;41334;47.872;16.384;2023-08-31T18:06:20;98946.16;;;16.91;59.20
55470;BME280;41334;47.872;16.384;2023-08-31T18:11:22;98955.31;;;16.88;59.26
55470;BME280;41334;47.872;16.384;2023-08-31T18:16:23;98953.91;;;16.78;58.70
55470;BME280;41334;47.872;16.384;2023-08-31T18:21:26;98955.38;;;16.72;60.59
55470;BME280;41334;47.872;16.384;2023-08-31T18:26:28;98962.66;;;16.61;60.99
55470;BME280;41334;47.872;16.384;2023-08-31T18:31:29;98971.09;;;16.45;61.16
55470;BME280;41334;47.872;16.384;2023-08-31T18:36:31;98976.81;;;16.32;61.43
55470;BME280;41334;47.872;16.384;2023-08-31T18:41:35;98978.06;;;16.19;62.40
55470;BME280;41334;47.872;16.384;2023-08-31T18:46:38;98988.06;;;16.04;62.71
55470;BME280;41334;47.872;16.384;2023-08-31T18:51:40;98992.56;;;15.93;65.10
55470;BME280;41334;47.872;16.384;2023-08-31T18:56:45;98990.94;;;15.76;65.33
55470;BME280;41334;47.872;16.384;2023-08-31T19:01:47;99002.31;;;15.71;65.41
55470;BME280;41334;47.872;16.384;2023-08-31T19:06:51;99005.00;;;15.68;65.88
55470;BME280;41334;47.872;16.384;2023-08-31T19:11:53;99007.19;;;15.59;68.35
55470;BME280;41334;47.872;16.384;2023-08-31T19:16:55;98998.84;;;15.46;67.23
55470;BME280;41334;47.872;16.384;2023-08-31T19:21:57;99005.75;;;15.37;68.37
55470;BME280;41334;47.872;16.384;2023-08-31T19:26:59;99009.38;;;15.25;68.93
55470;BME280;41334;47.872;16.384;2023-08-31T19:32:02;99011.31;;;15.09;68.04
55470;BME280;41334;47.872;16.384;2023-08-31T19:37:04;99022.88;;;14.95;67.52
55470;BME280;41334;47.872;16.384;2023-08-31T19:42:07;99025.53;;;14.91;68.97
55470;BME280;41334;47.872;16.384;2023-08-31T19:47:10;99017.88;;;14.76;69.25
55470;BME280;41334;47.872;16.384;2023-08-31T19:52:16;99017.63;;;14.69;70.52
55470;BME280;41334;47.872;16.384;2023-08-31T19:57:18;99021.47;;;14.64;70.24
55470;BME280;41334;47.872;16.384;2023-08-31T20:02:20;99020.91;;;14.59;71.54
55470;BME280;41334;47.872;16.384;2023-08-31T20:07:22;99028.19;;;14.51;70.34
55470;BME280;41334;47.872;16.384;2023-08-31T20:12:26;99012.63;;;14.50;70.36
55470;BME280;41334;47.872;16.384;2023-08-31T20:17:27;99023.34;;;14.48;70.65
55470;BME280;41334;47.872;16.384;2023-08-31T20:22:30;99028.69;;;14.53;72.76
55470;BME280;41334;47.872;16.384;2023-08-31T20:27:32;99031.69;;;14.60;71.89
55470;BME280;41334;47.872;16.384;2023-08-31T20:32:36;99027.50;;;14.66;70.90
55470;BME280;41334;47.872;16.384;2023-08-31T20:37:38;99029.75;;;14.73;72.66
55470;BME280;41334;47.872;16.384;2023-08-31T20:42:40;99034.38;;;14.69;70.22
55470;BME280;41334;47.872;16.384;2023-08-31T20:47:44;99029.72;;;14.61;71.86
55470;BME280;41334;47.872;16.384;2023-08-31T20:52:46;99034.94;;;14.50;73.37
55470;BME280;41334;47.872;16.384;2023-08-31T20:57:51;99031.72;;;14.36;72.23
55470;BME280;41334;47.872;16.384;2023-08-31T21:02:55;99031.00;;;14.27;73.82
55470;BME280;41334;47.872;16.384;2023-08-31T21:07:57;99050.38;;;14.23;74.88
55470;BME280;41334;47.872;16.384;2023-08-31T21:12:58;99053.53;;;14.21;75.49
55470;BME280;41334;47.872;16.384;2023-08-31T21:18:00;99062.09;;;14.16;75.46
55470;BME280;41334;47.872;16.384;2023-08-31T21:23:06;99066.00;;;14.03;73.93
55470;BME280;41334;47.872;16.384;2023-08-31T21:28:13;99061.00;;;13.96;73.30
55470;BME280;41334;47.872;16.384;2023-08-31T21:55:51;99072.97;;;13.64;73.03
55470;BME280;41334;47.872;16.384;2023-08-31T22:00:52;99078.03;;;13.62;73.01
55470;BME280;41334;47.872;16.384;2023-08-31T22:05:55;99077.72;;;13.63;75.49
55470;BME280;41334;47.872;16.384;2023-08-31T22:11:39;99074.66;;;13.56;74.45
55470;BME280;41334;47.872;16.384;2023-08-31T22:16:41;99070.22;;;13.55;74.20
55470;BME280;41334;47.872;16.384;2023-08-31T22:21:43;99089.38;;;13.57;74.24
55470;BME280;41334;47.872;16.384;2023-08-31T22:26:45;99080.91;;;13.53;74.23
55470;BME280;41334;47.872;16.384;2023-08-31T22:31:46;99081.91;;;13.49;74.80
55470;BME280;41334;47.872;16.384;2023-08-31T22:36:48;99088.28;;;13.49;74.04
55470;BME280;41334;47.872;16.384;2023-08-31T22:41:50;99087.75;;;13.56;73.77
55470;BME280;41334;47.872;16.384;2023-08-31T22:46:52;99102.13;;;13.66;73.50
55470;BME280;41334;47.872;16.384;2023-08-31T22:51:54;99110.25;;;13.71;72.11
55470;BME280;41334;47.872;16.384;2023-08-31T22:56:56;99116.91;;;13.79;72.26
55470;BME280;41334;47.872;16.384;2023-08-31T23:13:00;99120.47;;;14.13;70.95
55470;BME280;41334;47.872;16.384;2023-08-31T23:18:02;99116.31;;;14.19;71.30
55470;BME280;41334;47.872;16.384;2023-08-31T23:23:04;99127.22;;;14.12;73.17
55470;BME280;41334;47.872;16.384;2023-08-31T23:28:06;99117.84;;;14.16;70.97
55470;BME280;41334;47.872;16.384;2023-08-31T23:44:09;99125.53;;;14.32;69.89
55470;BME280;41334;47.872;16.384;2023-08-31T23:49:11;99136.81;;;14.35;70.67
55470;BME280;41334;47.872;16.384;2023-08-31T23:54:13;99140.41;;;14.36;70.40
55470;BME280;41334;47.872;16.384;2023-08-31T23:59:15;99131.56;;;14.34;70.23
